createdAt,value
2022-08-11T00:01:25.636Z,18.70
2022-08-11T00:04:16.133Z,18.70
2022-08-11T00:07:06.773Z,18.70
2022-08-11T00:09:57.051Z,18.70
2022-08-11T00:12:51.649Z,18.70
2022-08-11T00:15:44.202Z,18.70
2022-08-11T00:18:43.734Z,18.60
2022-08-11T00:22:02.839Z,18.50
2022-08-11T00:24:51.655Z,18.50
2022-08-11T00:27:43.122Z,18.50
2022-08-11T00:30:40.281Z,18.50
2022-08-11T00:33:44.269Z,18.40
2022-08-11T00:36:46.874Z,18.40
2022-08-11T00:39:43.348Z,18.40
2022-08-11T00:42:47.117Z,18.40
2022-08-11T00:45:42.272Z,18.40
2022-08-11T00:48:38.534Z,18.40
2022-08-11T00:52:04.372Z,18.40
2022-08-11T00:55:55.506Z,18.40
2022-08-11T00:59:34.518Z,18.40
2022-08-11T01:02:39.957Z,18.30
2022-08-11T01:05:51.218Z,18.20
2022-08-11T01:09:18.016Z,18.30
2022-08-11T01:12:41.343Z,18.20
2022-08-11T01:15:56.007Z,18.20
2022-08-11T01:19:27.650Z,18.10
2022-08-11T01:22:50.574Z,18.10
2022-08-11T01:26:14.954Z,18.20
2022-08-11T01:29:35.063Z,18.10
2022-08-11T01:32:59.438Z,18.10
2022-08-11T01:36:22.041Z,18.10
2022-08-11T01:39:54.438Z,18.00
2022-08-11T01:43:33.152Z,18.00
2022-08-11T01:46:29.019Z,19.10
2022-08-11T01:49:29.146Z,18.30
2022-08-11T01:52:53.303Z,18.20
2022-08-11T01:55:51.931Z,18.20
2022-08-11T01:58:46.819Z,18.20
2022-08-11T02:01:46.905Z,18.20
2022-08-11T02:04:42.184Z,18.10
2022-08-11T02:07:38.496Z,18.00
2022-08-11T02:10:51.987Z,18.00
2022-08-11T02:13:48.950Z,17.90
2022-08-11T02:16:54.418Z,17.90
2022-08-11T02:20:11.841Z,17.80
2022-08-11T02:24:03.831Z,17.80
2022-08-11T02:26:40.867Z,17.90
2022-08-11T02:29:36.287Z,17.80
2022-08-11T02:32:48.086Z,17.80
2022-08-11T02:35:47.733Z,17.80
2022-08-11T02:38:45.358Z,17.70
2022-08-11T02:42:08.641Z,17.60
2022-08-11T02:45:40.850Z,17.60
2022-08-11T02:48:59.104Z,17.50
2022-08-11T02:52:05.290Z,17.50
2022-08-11T02:55:08.860Z,17.50
2022-08-11T02:58:12.670Z,17.60
2022-08-11T03:01:14.045Z,17.50
2022-08-11T03:04:11.726Z,17.50
2022-08-11T03:07:28.610Z,17.50
2022-08-11T03:10:23.768Z,17.40
2022-08-11T03:13:41.057Z,17.50
2022-08-11T03:16:46.713Z,17.60
2022-08-11T03:19:46.565Z,17.60
2022-08-11T03:22:41.649Z,17.60
2022-08-11T03:25:36.601Z,17.50
2022-08-11T03:28:35.105Z,17.50
2022-08-11T03:31:29.138Z,17.50
2022-08-11T03:34:22.802Z,17.40
2022-08-11T03:37:51.812Z,17.40
2022-08-11T03:41:50.471Z,17.30
2022-08-11T03:44:49.072Z,17.20
2022-08-11T03:48:06.032Z,17.30
2022-08-11T03:51:09.010Z,17.30
2022-08-11T03:54:09.973Z,17.30
2022-08-11T03:57:40.643Z,17.30
2022-08-11T04:01:04.295Z,17.20
2022-08-11T04:04:35.666Z,17.10
2022-08-11T04:08:16.247Z,17.10
2022-08-11T04:11:24.186Z,17.10
2022-08-11T04:15:08.990Z,17.10
2022-08-11T04:18:26.752Z,17.00
2022-08-11T04:21:57.211Z,17.00
2022-08-11T04:25:00.393Z,16.90
2022-08-11T04:28:28.465Z,16.80
2022-08-11T04:31:48.857Z,16.80
2022-08-11T04:35:02.844Z,16.80
2022-08-11T04:38:14.067Z,16.70
2022-08-11T04:41:59.432Z,16.70
2022-08-11T04:45:29.884Z,16.80
2022-08-11T04:49:33.732Z,16.70
2022-08-11T04:53:13.468Z,16.70
2022-08-11T04:56:27.455Z,16.80
2022-08-11T05:00:06.420Z,17.00
2022-08-11T05:03:41.629Z,16.90
2022-08-11T05:06:55.941Z,16.90
2022-08-11T05:12:52.912Z,16.90
2022-08-11T05:16:08.021Z,17.50
2022-08-11T05:19:16.214Z,17.20
2022-08-11T05:22:29.448Z,17.30
2022-08-11T05:26:44.857Z,17.40
2022-08-11T05:29:19.995Z,17.40
2022-08-11T05:32:30.800Z,17.60
2022-08-11T05:36:01.267Z,17.70
2022-08-11T05:38:54.843Z,18.10
2022-08-11T05:42:01.677Z,17.90
2022-08-11T05:45:15.614Z,18.00
2022-08-11T05:48:23.014Z,18.10
2022-08-11T05:51:30.507Z,18.10
2022-08-11T05:54:37.628Z,18.10
2022-08-11T05:57:48.335Z,18.20
2022-08-11T06:00:47.878Z,18.30
2022-08-11T06:03:58.672Z,18.40
2022-08-11T06:06:52.307Z,18.40
2022-08-11T06:09:50.586Z,18.60
2022-08-11T06:12:40.828Z,18.60
2022-08-11T06:15:31.198Z,18.60
2022-08-11T06:18:22.345Z,20.30
2022-08-11T06:21:12.912Z,18.80
2022-08-11T06:24:02.705Z,18.90
2022-08-11T06:30:03.433Z,19.10
2022-08-11T06:32:57.537Z,19.30
2022-08-11T06:36:07.489Z,19.40
2022-08-11T06:39:05.086Z,19.60
2022-08-11T06:41:59.390Z,19.70
2022-08-11T06:45:07.461Z,19.90
2022-08-11T06:48:00.679Z,20.10
2022-08-11T06:51:11.154Z,20.20
2022-08-11T06:54:04.598Z,20.40
2022-08-11T06:57:29.260Z,20.60
2022-08-11T07:00:33.193Z,20.90
2022-08-11T07:03:23.464Z,21.50
2022-08-11T07:06:50.535Z,21.90
2022-08-11T07:10:37.350Z,22.10
2022-08-11T07:13:46.020Z,22.40
2022-08-11T07:16:35.770Z,22.60
2022-08-11T07:19:45.734Z,22.80
2022-08-11T07:22:55.645Z,23.20
2022-08-11T07:26:05.272Z,23.30
2022-08-11T07:28:56.462Z,23.40
2022-08-11T07:31:50.096Z,23.50
2022-08-11T07:34:41.594Z,23.70
2022-08-11T07:37:33.229Z,24.00
2022-08-11T07:40:24.812Z,24.30
2022-08-11T07:43:14.561Z,24.40
2022-08-11T07:46:23.636Z,24.60
2022-08-11T07:49:29.897Z,24.70
2022-08-11T07:52:27.902Z,24.90
2022-08-11T07:55:18.354Z,25.10
2022-08-11T07:58:30.014Z,25.40
2022-08-11T08:01:43.092Z,25.50
2022-08-11T08:04:49.783Z,25.60
2022-08-11T08:07:57.011Z,25.70
2022-08-11T08:11:03.502Z,25.80
2022-08-11T08:14:12.590Z,25.90
2022-08-11T08:17:18.459Z,26.10
2022-08-11T08:20:10.478Z,26.30
2022-08-11T08:23:01.726Z,26.60
2022-08-11T08:25:53.738Z,26.70
2022-08-11T08:28:46.515Z,26.90
2022-08-11T08:31:36.226Z,27.10
2022-08-11T08:34:25.720Z,27.30
2022-08-11T08:37:44.787Z,27.30
2022-08-11T08:40:24.718Z,27.50
2022-08-11T08:43:17.229Z,27.80
2022-08-11T08:46:10.311Z,27.90
2022-08-11T08:49:02.887Z,28.10
2022-08-11T08:52:20.269Z,28.20
2022-08-11T08:55:06.947Z,28.40
2022-08-11T08:58:00.806Z,28.50
2022-08-11T09:00:52.354Z,28.60
2022-08-11T09:04:05.030Z,28.80
2022-08-11T09:06:52.592Z,29.00
2022-08-11T09:09:44.103Z,29.20
2022-08-11T09:12:35.893Z,29.10
2022-08-11T09:15:28.281Z,29.20
2022-08-11T09:18:19.728Z,29.30
2022-08-11T09:21:09.352Z,29.60
2022-08-11T09:24:29.294Z,30.00
2022-08-11T09:27:19.805Z,30.30
2022-08-11T09:30:12.146Z,30.10
2022-08-11T09:33:05.465Z,30.00
2022-08-11T09:35:54.709Z,30.00
2022-08-11T09:39:00.797Z,30.00
2022-08-11T09:42:01.813Z,30.10
2022-08-11T09:44:53.303Z,30.20
2022-08-11T09:47:44.871Z,30.50
2022-08-11T09:50:34.061Z,31.00
2022-08-11T09:53:36.355Z,30.90
2022-08-11T09:56:48.376Z,30.50
2022-08-11T09:59:38.939Z,30.40
2022-08-11T10:02:31.600Z,30.40
2022-08-11T10:05:38.864Z,30.50
2022-08-11T10:08:29.899Z,30.40
2022-08-11T10:11:22.962Z,30.50
2022-08-11T10:14:34.443Z,30.30
2022-08-11T10:17:25.734Z,30.20
2022-08-11T10:20:14.671Z,30.30
2022-08-11T10:23:21.959Z,30.30
2022-08-11T10:26:28.228Z,30.40
2022-08-11T10:29:45.265Z,30.40
2022-08-11T10:33:00.047Z,30.50
2022-08-11T10:35:49.612Z,31.00
2022-08-11T10:38:39.048Z,30.90
2022-08-11T10:42:06.079Z,30.80
2022-08-11T10:44:58.727Z,30.70
2022-08-11T10:47:49.713Z,30.80
2022-08-11T10:50:56.534Z,30.80
2022-08-11T10:54:05.230Z,30.80
2022-08-11T10:57:13.962Z,30.70
2022-08-11T11:00:02.901Z,30.40
2022-08-11T11:03:16.838Z,30.50
2022-08-11T11:06:27.646Z,30.60
2022-08-11T11:09:20.876Z,30.60
2022-08-11T11:12:32.162Z,30.60
2022-08-11T11:15:40.846Z,30.50
2022-08-11T11:18:35.953Z,30.30
2022-08-11T11:21:26.841Z,30.40
2022-08-11T11:24:25.430Z,30.40
2022-08-11T11:27:22.422Z,30.40
2022-08-11T11:30:14.661Z,30.40
2022-08-11T11:33:10.393Z,30.20
2022-08-11T11:36:14.349Z,30.30
2022-08-11T11:39:03.150Z,30.30
2022-08-11T11:41:54.793Z,30.10
2022-08-11T11:44:45.802Z,30.10
2022-08-11T11:47:35.771Z,30.00
2022-08-11T11:50:26.310Z,29.90
2022-08-11T11:53:24.354Z,29.80
2022-08-11T11:56:14.330Z,29.80
2022-08-11T11:59:29.498Z,29.90
2022-08-11T12:02:18.142Z,29.90
2022-08-11T12:05:08.952Z,29.70
2022-08-11T12:08:17.155Z,29.70
2022-08-11T12:11:27.597Z,29.70
2022-08-11T12:14:20.545Z,29.70
2022-08-11T12:17:09.284Z,29.60
2022-08-11T12:19:58.266Z,29.60
2022-08-11T12:23:04.558Z,29.60
2022-08-11T12:26:26.274Z,29.60
2022-08-11T12:29:19.863Z,29.60
2022-08-11T12:32:09.701Z,29.50
2022-08-11T12:34:58.978Z,29.50
2022-08-11T12:37:51.398Z,29.60
2022-08-11T12:44:28.051Z,29.70
2022-08-11T12:47:20.883Z,29.50
2022-08-11T12:50:27.803Z,29.50
2022-08-11T12:53:16.540Z,29.40
2022-08-11T12:56:24.753Z,29.30
2022-08-11T12:59:31.426Z,29.40
2022-08-11T13:02:44.371Z,29.40
2022-08-11T13:05:34.363Z,29.50
2022-08-11T13:08:31.855Z,29.50
2022-08-11T13:11:56.822Z,29.50
2022-08-11T13:14:46.455Z,29.50
2022-08-11T13:17:43.531Z,29.50
2022-08-11T13:20:37.104Z,29.40
2022-08-11T13:23:29.555Z,29.40
2022-08-11T13:26:20.918Z,29.40
2022-08-11T13:29:14.875Z,29.20
2022-08-11T13:32:04.219Z,29.30
2022-08-11T13:34:54.649Z,29.30
2022-08-11T13:38:19.130Z,29.30
2022-08-11T13:40:56.573Z,29.40
2022-08-11T13:43:46.018Z,29.50
2022-08-11T13:46:35.142Z,29.50
2022-08-11T13:49:24.694Z,29.50
2022-08-11T13:52:17.193Z,29.50
2022-08-11T14:04:59.252Z,29.20
2022-08-11T14:28:45.163Z,29.20
2022-08-11T14:32:53.055Z,29.50
2022-08-11T14:36:41.853Z,29.30
2022-08-11T14:40:41.676Z,29.30
2022-08-11T14:44:10.384Z,29.30
2022-08-11T14:47:23.066Z,28.20
2022-08-11T14:50:17.455Z,29.40
2022-08-11T14:53:09.368Z,29.30
2022-08-11T14:59:54.716Z,29.30
2022-08-11T15:03:03.514Z,29.30
2022-08-11T15:05:57.972Z,29.40
2022-08-11T15:13:55.541Z,29.30
2022-08-11T15:20:39.292Z,29.30
2022-08-11T15:28:13.948Z,29.20
2022-08-11T15:31:38.580Z,29.30
2022-08-11T15:39:33.178Z,29.30
2022-08-11T15:42:39.264Z,29.30
2022-08-11T15:45:50.840Z,29.30
2022-08-11T15:48:46.206Z,29.20
2022-08-11T15:51:37.272Z,29.20
2022-08-11T15:54:31.545Z,29.30
2022-08-11T15:57:39.771Z,29.30
2022-08-11T16:00:47.218Z,29.30
2022-08-11T16:04:08.100Z,29.30
2022-08-11T16:07:00.560Z,29.20
2022-08-11T16:09:59.642Z,29.20
2022-08-11T16:13:10.662Z,29.30
2022-08-11T16:16:16.474Z,29.30
2022-08-11T16:19:09.037Z,29.30
2022-08-11T16:21:58.780Z,29.20
2022-08-11T16:27:05.191Z,29.20
2022-08-11T16:28:02.294Z,29.10
2022-08-11T16:30:52.104Z,29.00
2022-08-11T16:33:49.748Z,29.10
2022-08-11T16:36:57.312Z,29.10
2022-08-11T16:39:48.332Z,29.00
2022-08-11T16:43:08.698Z,28.90
2022-08-11T16:46:22.385Z,28.90
2022-08-11T16:49:16.509Z,28.90
2022-08-11T16:52:07.935Z,28.90
2022-08-11T16:54:56.558Z,28.90
2022-08-11T16:58:03.070Z,28.80
2022-08-11T17:00:52.776Z,28.70
2022-08-11T17:04:04.831Z,28.70
2022-08-11T17:07:40.071Z,28.70
2022-08-11T17:11:03.142Z,28.60
2022-08-11T17:13:59.573Z,28.60
2022-08-11T17:16:51.445Z,28.50
2022-08-11T17:20:40.241Z,28.50
2022-08-11T17:23:33.578Z,28.50
2022-08-11T17:26:50.214Z,28.40
2022-08-11T17:29:55.050Z,28.30
2022-08-11T17:33:05.645Z,28.20
2022-08-11T17:35:57.379Z,28.10
2022-08-11T17:38:47.311Z,28.10
2022-08-11T17:41:55.195Z,28.00
2022-08-11T17:45:02.851Z,28.00
2022-08-11T17:48:09.482Z,28.00
2022-08-11T17:51:01.600Z,27.90
2022-08-11T17:54:18.197Z,27.80
2022-08-11T17:57:33.212Z,27.70
2022-08-11T18:00:24.427Z,27.70
2022-08-11T18:03:33.755Z,27.60
2022-08-11T18:06:29.715Z,27.40
2022-08-11T18:09:42.343Z,27.30
2022-08-11T18:12:48.743Z,27.30
2022-08-11T18:15:58.368Z,27.10
2022-08-11T18:19:06.193Z,27.00
2022-08-11T18:22:20.197Z,26.90
2022-08-11T18:25:29.861Z,26.90
2022-08-11T18:28:43.204Z,26.90
2022-08-11T18:31:53.728Z,26.70
2022-08-11T18:35:14.492Z,26.60
2022-08-11T18:38:24.940Z,26.50
2022-08-11T18:41:33.301Z,26.50
2022-08-11T18:44:42.816Z,26.20
2022-08-11T18:47:50.466Z,26.00
2022-08-11T18:51:30.111Z,25.90
2022-08-11T18:58:12.615Z,25.60
2022-08-11T19:01:20.461Z,25.30
2022-08-11T19:04:29.969Z,25.10
2022-08-11T19:07:38.532Z,25.00
2022-08-11T19:10:46.973Z,24.90
2022-08-11T19:13:54.532Z,24.70
2022-08-11T19:17:02.961Z,24.60
2022-08-11T19:20:10.047Z,24.50
2022-08-11T19:23:17.779Z,24.40
2022-08-11T19:26:27.376Z,24.30
2022-08-11T19:30:11.827Z,24.10
2022-08-11T19:33:01.665Z,24.00
2022-08-11T19:36:08.269Z,24.00
2022-08-11T19:39:15.196Z,23.90
2022-08-11T19:42:23.861Z,23.80
2022-08-11T19:45:30.048Z,23.70
2022-08-11T19:48:36.848Z,23.60
2022-08-11T19:51:43.463Z,23.50
2022-08-11T19:54:52.783Z,23.30
2022-08-11T19:58:02.096Z,23.30
2022-08-11T20:01:08.072Z,23.20
2022-08-11T20:04:14.250Z,23.20
2022-08-11T20:07:21.144Z,23.00
2022-08-11T20:10:30.027Z,22.90
2022-08-11T20:13:41.727Z,22.90
2022-08-11T20:16:51.551Z,22.80
2022-08-11T20:23:12.195Z,22.70
2022-08-11T20:26:30.697Z,22.70
2022-08-11T20:29:44.399Z,22.60
2022-08-11T20:32:51.921Z,22.60
2022-08-11T20:35:58.508Z,22.50
2022-08-11T20:39:05.773Z,22.40
2022-08-11T20:42:13.621Z,22.40
2022-08-11T20:45:23.948Z,22.30
2022-08-11T20:48:30.414Z,22.30
2022-08-11T20:55:03.739Z,22.20
2022-08-11T20:58:20.163Z,22.10
2022-08-11T21:01:38.710Z,22.00
2022-08-11T21:04:54.071Z,22.00
2022-08-11T21:08:06.188Z,21.90
2022-08-11T21:11:14.058Z,21.90
2022-08-11T21:14:34.287Z,21.90
2022-08-11T21:17:48.783Z,21.80
2022-08-11T21:21:08.803Z,21.90
2022-08-11T21:24:24.817Z,21.90
2022-08-11T21:27:38.564Z,21.80
2022-08-11T21:30:48.107Z,21.80
2022-08-11T21:33:57.022Z,21.70
2022-08-11T21:37:04.000Z,21.70
2022-08-11T21:40:16.392Z,21.70
2022-08-11T21:43:25.361Z,21.60
2022-08-11T21:46:36.235Z,21.50
2022-08-11T21:49:45.041Z,21.60
2022-08-11T21:52:54.312Z,21.60
2022-08-11T21:56:01.997Z,21.60
2022-08-11T21:59:09.157Z,21.50
2022-08-11T22:02:16.417Z,21.50
2022-08-11T22:05:25.957Z,21.50
2022-08-11T22:08:32.429Z,21.40
2022-08-11T22:11:39.297Z,21.40
2022-08-11T22:14:45.514Z,21.30
2022-08-11T22:17:55.919Z,21.30
2022-08-11T22:21:05.446Z,21.20
2022-08-11T22:24:12.875Z,21.30
2022-08-11T22:27:24.343Z,21.20
2022-08-11T22:30:30.564Z,21.10
2022-08-11T22:33:37.705Z,21.00
2022-08-11T22:36:57.943Z,21.00
2022-08-11T22:40:04.527Z,20.80
2022-08-11T22:43:10.853Z,20.80
2022-08-11T22:46:17.368Z,20.80
2022-08-11T22:49:24.268Z,20.70
2022-08-11T22:52:34.485Z,20.70
2022-08-11T22:55:43.224Z,20.70
2022-08-11T22:58:50.100Z,20.60
2022-08-11T23:01:57.987Z,20.60
2022-08-11T23:05:04.757Z,20.60
2022-08-11T23:08:14.065Z,20.50
2022-08-11T23:11:21.286Z,20.60
2022-08-11T23:14:27.821Z,20.50
2022-08-11T23:17:35.813Z,20.50
2022-08-11T23:20:58.661Z,20.50
2022-08-11T23:24:08.469Z,20.40
2022-08-11T23:27:15.413Z,20.30
2022-08-11T23:30:22.689Z,20.40
2022-08-11T23:33:32.410Z,20.40
2022-08-11T23:36:47.392Z,20.50
2022-08-11T23:39:55.610Z,20.60
2022-08-11T23:43:01.565Z,20.60
2022-08-11T23:46:08.679Z,20.40
2022-08-11T23:49:17.843Z,20.30
2022-08-11T23:52:24.679Z,20.20
2022-08-11T23:55:33.075Z,20.10
2022-08-11T23:58:39.052Z,20.00
